Time;durP1;ratioP1;P1;durP2;ratioP2;P2;SDS_P1;SDS_P2;PMS_P1;PMS_P2;Temp;Humidity;BMP_temperature;BMP_pressure;BME280_temperature;BME280_humidity;BME280_pressure;Samples;Min_cycle;Max_cycle;Signal;HPM_P1;HPM_P2
2022/06/22 00:01:26;;;;;;;;;;;19.10;65.70;;;;;;5060542;28;19923;-76
2022/06/22 00:03:53;;;;;;;;;;;19.10;65.90;;;;;;5060509;28;19909;-76
2022/06/22 00:06:25;;;;;;;;;;;19.10;65.80;;;;;;5051345;28;19917;-76
2022/06/22 00:08:51;;;;;;;;;;;19.10;66.00;;;;;;5052406;28;19993;-76
2022/06/22 00:11:17;;;;;;;;;;;19.00;66.00;;;;;;5051284;28;19962;-76
2022/06/22 00:13:50;;;;;;;;;;;19.00;66.00;;;;;;5064266;28;19909;-76
2022/06/22 00:16:23;;;;;;;;;;;19.00;66.10;;;;;;5059293;28;20364;-76
2022/06/22 00:18:49;;;;;;;;;;;18.90;65.60;;;;;;5049808;28;19913;-76
2022/06/22 00:21:15;;;;;;;;;;;18.90;66.20;;;;;;5056368;28;19925;-76
2022/06/22 00:23:41;;;;;;;;;;;18.90;66.00;;;;;;5068250;28;20176;-76
2022/06/22 00:26:15;;;;;;;;;;;18.80;66.20;;;;;;5065799;28;19951;-76
2022/06/22 00:28:59;;;;;;;;;;;18.80;66.00;;;;;;5065608;28;20349;-76
2022/06/22 00:31:43;;;;;;;;;;;18.80;66.30;;;;;;5054157;28;19982;-76
2022/06/22 00:34:09;;;;;;;;;;;18.80;66.40;;;;;;5052777;28;19931;-76
2022/06/22 00:36:49;;;;;;;;;;;18.70;66.50;;;;;;5059764;28;19912;-76
2022/06/22 00:39:20;;;;;;;;;;;18.70;66.40;;;;;;5060866;28;20450;-76
2022/06/22 00:41:47;;;;;;;;;;;18.70;66.60;;;;;;5053984;28;19913;-76
2022/06/22 00:44:14;;;;;;;;;;;18.70;66.50;;;;;;5046903;28;20366;-76
2022/06/22 00:46:52;;;;;;;;;;;18.60;66.70;;;;;;5064066;28;19921;-76
2022/06/22 00:49:20;;;;;;;;;;;18.60;66.80;;;;;;5063427;28;19916;-76
2022/06/22 00:51:46;;;;;;;;;;;18.60;66.90;;;;;;5068779;28;20376;-76
2022/06/22 00:54:14;;;;;;;;;;;18.50;66.80;;;;;;5060450;28;19913;-76
2022/06/22 00:56:39;;;;;;;;;;;18.50;66.70;;;;;;5056928;28;19912;-76
2022/06/22 00:59:18;;;;;;;;;;;18.50;67.00;;;;;;5067644;28;19920;-76
2022/06/22 01:02:02;;;;;;;;;;;18.40;67.00;;;;;;5061736;28;19919;-76
2022/06/22 01:04:40;;;;;;;;;;;18.40;66.90;;;;;;5068295;28;19908;-76
2022/06/22 01:07:09;;;;;;;;;;;18.40;67.10;;;;;;5067823;28;19973;-76
2022/06/22 01:09:41;;;;;;;;;;;18.40;67.10;;;;;;5060873;28;19948;-76
2022/06/22 01:12:22;;;;;;;;;;;18.40;67.30;;;;;;5048026;28;19909;-76
2022/06/22 01:14:53;;;;;;;;;;;18.40;67.30;;;;;;5050794;28;19978;-76
2022/06/22 01:17:20;;;;;;;;;;;18.30;67.30;;;;;;5066245;28;19909;-76
2022/06/22 01:20:12;;;;;;;;;;;18.30;67.40;;;;;;5068836;28;19948;-76
2022/06/22 01:22:44;;;;;;;;;;;18.20;67.40;;;;;;5071369;28;19940;-76
2022/06/22 01:25:18;;;;;;;;;;;18.20;67.50;;;;;;5058198;28;19917;-76
2022/06/22 01:27:44;;;;;;;;;;;18.20;67.40;;;;;;5058829;28;19974;-76
2022/06/22 01:30:19;;;;;;;;;;;18.20;67.50;;;;;;5064799;28;19923;-76
2022/06/22 01:32:45;;;;;;;;;;;18.20;67.70;;;;;;5052229;28;19912;-76
2022/06/22 01:35:19;;;;;;;;;;;18.10;67.50;;;;;;5068625;28;19925;-76
2022/06/22 01:37:45;;;;;;;;;;;18.10;67.40;;;;;;5063602;28;19916;-76
2022/06/22 01:40:20;;;;;;;;;;;18.10;67.70;;;;;;5064125;28;19939;-76
2022/06/22 01:42:50;;;;;;;;;;;18.10;67.80;;;;;;5064299;28;20019;-76
2022/06/22 01:45:19;;;;;;;;;;;18.10;67.90;;;;;;5060879;28;19920;-76
2022/06/22 01:47:56;;;;;;;;;;;18.00;68.10;;;;;;5068157;28;19919;-76
2022/06/22 01:50:29;;;;;;;;;;;18.00;68.00;;;;;;5058405;28;20365;-76
2022/06/22 01:53:01;;;;;;;;;;;17.90;67.50;;;;;;5070826;28;19916;-76
2022/06/22 01:55:30;;;;;;;;;;;17.90;68.00;;;;;;5070391;28;19912;-76
2022/06/22 01:58:01;;;;;;;;;;;17.90;68.20;;;;;;5064537;28;19939;-76
2022/06/22 02:00:26;;;;;;;;;;;17.90;68.20;;;;;;5065984;28;19963;-76
2022/06/22 02:02:55;;;;;;;;;;;17.90;68.00;;;;;;5070630;28;19908;-76
2022/06/22 02:05:23;;;;;;;;;;;17.80;68.20;;;;;;5070342;28;19967;-76
2022/06/22 02:07:51;;;;;;;;;;;17.80;68.40;;;;;;5071664;28;19909;-76
2022/06/22 02:10:35;;;;;;;;;;;17.80;68.40;;;;;;5071806;28;19970;-76
2022/06/22 02:13:04;;;;;;;;;;;17.80;68.40;;;;;;5072020;28;19952;-76
2022/06/22 02:15:42;;;;;;;;;;;17.80;68.30;;;;;;5069551;28;20288;-76
2022/06/22 02:18:21;;;;;;;;;;;17.70;68.30;;;;;;5069946;28;19909;-76
2022/06/22 02:20:47;;;;;;;;;;;17.70;68.50;;;;;;5067644;28;19916;-76
2022/06/22 02:23:15;;;;;;;;;;;17.60;68.30;;;;;;5067960;28;19955;-76
2022/06/22 02:25:47;;;;;;;;;;;17.60;68.40;;;;;;5071120;28;20325;-76
2022/06/22 02:28:12;;;;;;;;;;;17.60;68.40;;;;;;5053255;28;20053;-76
2022/06/22 02:30:38;;;;;;;;;;;17.60;68.70;;;;;;5050899;28;20365;-76
2022/06/22 02:33:05;;;;;;;;;;;17.60;68.90;;;;;;5058255;28;19960;-76
2022/06/22 02:35:30;;;;;;;;;;;17.60;69.00;;;;;;5070721;28;19966;-76
2022/06/22 02:38:02;;;;;;;;;;;17.50;68.60;;;;;;5071207;28;19954;-76
2022/06/22 02:40:29;;;;;;;;;;;17.50;68.60;;;;;;5069733;28;19916;-76
2022/06/22 02:45:40;;;;;;;;;;;17.50;68.90;;;;;;5058283;28;19927;-76
2022/06/22 02:48:12;;;;;;;;;;;17.50;69.00;;;;;;5057289;28;20008;-76
2022/06/22 02:50:53;;;;;;;;;;;17.50;69.00;;;;;;5050623;28;19951;-76
2022/06/22 02:53:23;;;;;;;;;;;17.40;69.00;;;;;;5051332;28;19939;-76
2022/06/22 02:55:50;;;;;;;;;;;17.40;69.30;;;;;;5070252;28;19909;-76
2022/06/22 02:58:26;;;;;;;;;;;17.40;69.30;;;;;;5070620;28;19922;-76
2022/06/22 03:00:52;;;;;;;;;;;17.40;69.10;;;;;;5070317;28;20371;-76
2022/06/22 03:03:18;;;;;;;;;;;17.40;69.60;;;;;;5061068;28;19909;-76
2022/06/22 03:05:45;;;;;;;;;;;17.30;69.30;;;;;;5068133;28;19938;-76
2022/06/22 03:08:14;;;;;;;;;;;17.30;69.40;;;;;;5069342;28;19939;-76
2022/06/22 03:10:51;;;;;;;;;;;17.30;69.60;;;;;;5068826;28;19908;-76
2022/06/22 03:13:22;;;;;;;;;;;17.30;69.70;;;;;;5049824;28;19989;-76
2022/06/22 03:15:48;;;;;;;;;;;17.20;69.80;;;;;;5059353;28;20331;-76
2022/06/22 03:18:15;;;;;;;;;;;17.20;69.60;;;;;;5059263;28;19913;-75
2022/06/22 03:20:47;;;;;;;;;;;17.20;69.50;;;;;;5067108;28;19963;-76
2022/06/22 03:23:22;;;;;;;;;;;17.20;69.50;;;;;;5066919;28;19909;-76
2022/06/22 03:25:50;;;;;;;;;;;17.20;69.50;;;;;;5054844;28;19916;-76
2022/06/22 03:28:18;;;;;;;;;;;17.20;69.50;;;;;;5051681;28;20345;-76
2022/06/22 03:30:48;;;;;;;;;;;17.20;69.70;;;;;;5048723;28;20333;-76
2022/06/22 03:33:16;;;;;;;;;;;17.10;69.70;;;;;;5061581;28;19919;-76
2022/06/22 03:35:54;;;;;;;;;;;17.10;69.70;;;;;;5069311;28;19967;-76
2022/06/22 03:38:22;;;;;;;;;;;17.10;69.70;;;;;;5065238;28;19912;-76
2022/06/22 03:40:52;;;;;;;;;;;17.10;69.60;;;;;;5061401;28;19916;-76
2022/06/22 03:43:21;;;;;;;;;;;17.00;69.80;;;;;;5069529;28;19969;-76
2022/06/22 03:45:48;;;;;;;;;;;17.00;69.80;;;;;;5048471;28;20607;-76
2022/06/22 03:48:16;;;;;;;;;;;17.00;69.80;;;;;;5056933;28;19947;-76
2022/06/22 03:50:50;;;;;;;;;;;17.00;69.80;;;;;;5069561;28;19941;-76
2022/06/22 03:53:24;;;;;;;;;;;17.00;69.90;;;;;;5055292;28;19917;-76
2022/06/22 03:55:52;;;;;;;;;;;17.00;70.00;;;;;;5057343;28;20054;-76
2022/06/22 03:58:20;;;;;;;;;;;17.00;70.00;;;;;;5053305;28;20339;-76
2022/06/22 04:00:46;;;;;;;;;;;16.90;70.00;;;;;;5067736;28;19913;-76
2022/06/22 04:03:13;;;;;;;;;;;16.90;70.20;;;;;;5054746;28;20003;-76
2022/06/22 04:05:40;;;;;;;;;;;16.90;70.20;;;;;;5064359;28;19959;-76
2022/06/22 04:08:06;;;;;;;;;;;16.90;70.30;;;;;;5068179;28;20312;-76
2022/06/22 04:10:31;;;;;;;;;;;16.90;70.10;;;;;;5064111;28;19915;-76
2022/06/22 04:12:57;;;;;;;;;;;16.90;70.20;;;;;;5067726;28;19966;-76
2022/06/22 04:15:33;;;;;;;;;;;16.90;70.20;;;;;;5069571;28;19912;-76
2022/06/22 04:18:01;;;;;;;;;;;16.90;70.20;;;;;;5057605;28;20479;-76
2022/06/22 04:20:49;;;;;;;;;;;16.90;70.20;;;;;;5057894;28;20363;-76
2022/06/22 04:23:12;;;;;;;;;;;16.90;70.30;;;;;;5069128;28;19908;-76
2022/06/22 04:25:38;;;;;;;;;;;16.90;70.30;;;;;;5062685;28;20347;-76
2022/06/22 04:28:06;;;;;;;;;;;16.80;70.20;;;;;;5068901;28;19912;-76
2022/06/22 04:30:38;;;;;;;;;;;16.80;70.30;;;;;;5068981;28;19992;-77
2022/06/22 04:33:03;;;;;;;;;;;16.90;70.30;;;;;;5062319;28;19959;-77
2022/06/22 04:35:35;;;;;;;;;;;16.80;70.40;;;;;;5068720;28;19916;-76
2022/06/22 04:38:16;;;;;;;;;;;16.90;70.40;;;;;;5068693;28;19935;-76
2022/06/22 04:40:45;;;;;;;;;;;16.80;70.20;;;;;;5069245;28;19909;-76
2022/06/22 04:43:10;;;;;;;;;;;16.80;70.40;;;;;;5055051;28;19956;-76
2022/06/22 04:45:40;;;;;;;;;;;16.90;70.40;;;;;;5049022;28;19987;-76
2022/06/22 04:48:11;;;;;;;;;;;16.80;70.40;;;;;;5047608;28;20446;-76
2022/06/22 04:50:38;;;;;;;;;;;16.90;70.40;;;;;;5047645;28;20404;-76
2022/06/22 04:53:04;;;;;;;;;;;16.90;70.40;;;;;;5071319;28;20365;-76
2022/06/22 04:55:33;;;;;;;;;;;16.90;70.40;;;;;;5071854;28;19935;-76
2022/06/22 04:58:01;;;;;;;;;;;16.90;70.40;;;;;;5058526;28;19920;-76
2022/06/22 05:00:28;;;;;;;;;;;16.90;70.90;;;;;;5066045;28;19935;-76
2022/06/22 05:02:58;;;;;;;;;;;16.90;70.40;;;;;;5059569;28;20231;-76
2022/06/22 05:05:25;;;;;;;;;;;16.90;70.30;;;;;;5069342;28;19920;-76
2022/06/22 05:07:55;;;;;;;;;;;16.90;70.40;;;;;;5066248;28;19913;-76
2022/06/22 05:10:24;;;;;;;;;;;16.90;70.50;;;;;;5064648;28;19920;-76
2022/06/22 05:12:55;;;;;;;;;;;16.90;70.50;;;;;;5057651;28;19967;-76
2022/06/22 05:15:23;;;;;;;;;;;16.90;70.40;;;;;;5051362;28;19917;-76
2022/06/22 05:17:48;;;;;;;;;;;16.90;70.40;;;;;;5066105;28;19909;-76
2022/06/22 05:20:23;;;;;;;;;;;16.90;70.40;;;;;;5066382;28;19908;-76
2022/06/22 05:22:50;;;;;;;;;;;16.90;70.40;;;;;;5064511;28;19920;-76
2022/06/22 05:25:17;;;;;;;;;;;16.90;70.40;;;;;;5072118;28;20392;-76
2022/06/22 05:27:45;;;;;;;;;;;16.90;70.40;;;;;;5066018;28;19944;-76
2022/06/22 05:30:11;;;;;;;;;;;16.90;70.40;;;;;;5065857;28;20720;-76
2022/06/22 05:32:42;;;;;;;;;;;16.90;70.40;;;;;;5072464;28;19912;-76
2022/06/22 05:35:10;;;;;;;;;;;16.90;70.40;;;;;;5063090;28;20015;-76
2022/06/22 05:37:37;;;;;;;;;;;16.90;70.50;;;;;;5059428;28;19959;-76
2022/06/22 05:40:03;;;;;;;;;;;16.90;70.40;;;;;;5072762;28;20365;-76
2022/06/22 05:42:31;;;;;;;;;;;16.90;70.50;;;;;;5071074;28;20689;-77
2022/06/22 05:44:57;;;;;;;;;;;16.90;70.40;;;;;;5066123;28;19994;-77
2022/06/22 05:47:27;;;;;;;;;;;16.90;70.30;;;;;;5072553;28;19913;-77
2022/06/22 05:49:55;;;;;;;;;;;16.90;70.40;;;;;;5071349;28;19909;-77
2022/06/22 05:52:24;;;;;;;;;;;17.00;70.40;;;;;;5052541;28;20285;-77
2022/06/22 05:54:51;;;;;;;;;;;17.00;70.40;;;;;;5055307;28;20356;-77
2022/06/22 05:57:31;;;;;;;;;;;17.00;70.30;;;;;;5051158;28;20004;-77
2022/06/22 06:00:02;;;;;;;;;;;17.00;70.40;;;;;;5063119;28;19917;-77
2022/06/22 06:02:31;;;;;;;;;;;17.00;70.30;;;;;;5054480;28;19966;-77
2022/06/22 06:05:05;;;;;;;;;;;17.00;70.30;;;;;;5070211;28;20004;-77
2022/06/22 06:07:30;;;;;;;;;;;17.00;70.20;;;;;;5066069;28;19917;-76
2022/06/22 06:09:56;;;;;;;;;;;17.00;70.20;;;;;;5067901;28;20002;-76
2022/06/22 06:12:24;;;;;;;;;;;17.10;70.10;;;;;;5071793;28;19908;-76
2022/06/22 06:14:52;;;;;;;;;;;17.10;70.20;;;;;;5071673;28;19913;-77
2022/06/22 06:17:28;;;;;;;;;;;17.10;70.20;;;;;;5069792;28;19915;-77
2022/06/22 06:19:54;;;;;;;;;;;17.10;70.00;;;;;;5061481;28;19909;-77
2022/06/22 06:22:22;;;;;;;;;;;17.10;70.10;;;;;;5051591;28;19913;-77
2022/06/22 06:27:56;;;;;;;;;;;17.20;70.10;;;;;;5059257;28;19931;-77
2022/06/22 06:30:28;;;;;;;;;;;17.10;70.00;;;;;;5058073;28;19909;-77
2022/06/22 06:33:00;;;;;;;;;;;17.20;70.00;;;;;;5065866;28;19912;-77
2022/06/22 06:35:30;;;;;;;;;;;17.20;69.90;;;;;;5065808;28;19912;-77
2022/06/22 06:37:56;;;;;;;;;;;17.20;70.00;;;;;;5059383;28;19944;-77
2022/06/22 06:40:24;;;;;;;;;;;17.20;69.80;;;;;;5061614;28;20420;-76
2022/06/22 06:42:54;;;;;;;;;;;17.30;69.80;;;;;;5054013;28;19935;-76
2022/06/22 06:45:24;;;;;;;;;;;17.30;69.70;;;;;;5064225;28;20060;-76
2022/06/22 06:47:52;;;;;;;;;;;17.30;69.70;;;;;;5071128;28;19962;-76
2022/06/22 06:50:26;;;;;;;;;;;17.40;69.80;;;;;;5071258;28;19952;-76
2022/06/22 06:52:58;;;;;;;;;;;17.40;69.60;;;;;;5059211;28;20336;-76
2022/06/22 06:55:44;;;;;;;;;;;17.40;69.60;;;;;;5062503;28;19916;-76
2022/06/22 06:58:11;;;;;;;;;;;17.40;69.70;;;;;;5051312;28;19912;-77
2022/06/22 07:00:37;;;;;;;;;;;17.40;69.50;;;;;;5071221;28;20022;-77
2022/06/22 07:03:06;;;;;;;;;;;17.50;69.60;;;;;;5072199;28;19919;-77
2022/06/22 07:05:32;;;;;;;;;;;17.50;69.40;;;;;;5067558;28;19935;-77
2022/06/22 07:08:06;;;;;;;;;;;17.50;69.50;;;;;;5054757;28;20361;-77
2022/06/22 07:10:50;;;;;;;;;;;17.50;69.40;;;;;;5049686;28;20438;-77
2022/06/22 07:13:25;;;;;;;;;;;17.50;69.30;;;;;;5066851;28;19982;-77
2022/06/22 07:15:54;;;;;;;;;;;17.50;69.30;;;;;;5050773;28;19958;-77
2022/06/22 07:18:23;;;;;;;;;;;17.50;69.30;;;;;;5067476;28;19916;-77
2022/06/22 07:20:52;;;;;;;;;;;17.60;69.10;;;;;;5064928;28;20457;-77
2022/06/22 07:23:22;;;;;;;;;;;17.60;69.10;;;;;;5066994;28;20014;-77
2022/06/22 07:25:57;;;;;;;;;;;17.60;69.00;;;;;;5050670;28;19912;-77
2022/06/22 07:28:28;;;;;;;;;;;17.70;68.90;;;;;;5055543;28;20316;-77
2022/06/22 07:30:56;;;;;;;;;;;17.70;68.80;;;;;;5049676;28;19916;-77
2022/06/22 07:33:25;;;;;;;;;;;17.80;68.80;;;;;;5064868;28;19919;-77
2022/06/22 07:35:56;;;;;;;;;;;17.80;68.80;;;;;;5068818;28;19921;-77
2022/06/22 07:38:31;;;;;;;;;;;17.80;68.60;;;;;;5056105;28;19908;-77
2022/06/22 07:43:41;;;;;;;;;;;17.90;68.50;;;;;;5049256;28;20021;-77
2022/06/22 07:46:07;;;;;;;;;;;17.90;68.40;;;;;;5055301;28;19958;-77
2022/06/22 07:48:37;;;;;;;;;;;17.90;68.40;;;;;;5055832;28;19913;-77
2022/06/22 07:51:04;;;;;;;;;;;18.00;68.40;;;;;;5065072;28;20599;-77
2022/06/22 07:53:33;;;;;;;;;;;18.00;68.30;;;;;;5069032;28;19920;-77
2022/06/22 07:56:08;;;;;;;;;;;18.00;68.20;;;;;;5068538;28;19936;-77
2022/06/22 07:58:42;;;;;;;;;;;18.00;68.20;;;;;;5067499;28;19909;-77
2022/06/22 08:01:09;;;;;;;;;;;18.10;68.20;;;;;;5057154;28;19935;-77
2022/06/22 08:03:42;;;;;;;;;;;18.10;68.10;;;;;;5053780;28;20003;-77
2022/06/22 08:06:28;;;;;;;;;;;18.10;68.10;;;;;;5066532;28;19916;-77
2022/06/22 08:08:58;;;;;;;;;;;18.10;68.00;;;;;;5048743;28;19970;-77
2022/06/22 08:11:27;;;;;;;;;;;18.20;68.00;;;;;;5054067;28;19912;-77
2022/06/22 08:13:55;;;;;;;;;;;18.20;67.80;;;;;;5047128;28;19916;-77
2022/06/22 08:16:23;;;;;;;;;;;18.20;67.70;;;;;;5062484;28;19919;-77
2022/06/22 08:18:49;;;;;;;;;;;18.30;67.70;;;;;;5060632;28;19995;-77
2022/06/22 08:21:16;;;;;;;;;;;18.30;67.60;;;;;;5060355;28;20428;-77
2022/06/22 08:23:42;;;;;;;;;;;18.40;67.70;;;;;;5055457;28;19995;-77
2022/06/22 08:26:13;;;;;;;;;;;18.40;67.70;;;;;;5059826;28;20010;-77
2022/06/22 08:28:39;;;;;;;;;;;18.40;67.60;;;;;;5053347;28;19913;-77
2022/06/22 08:31:05;;;;;;;;;;;18.40;67.50;;;;;;5062169;28;20345;-77
2022/06/22 08:33:38;;;;;;;;;;;18.50;67.40;;;;;;5068001;28;19917;-77
2022/06/22 08:36:10;;;;;;;;;;;18.50;67.40;;;;;;5070466;28;19952;-77
2022/06/22 08:38:45;;;;;;;;;;;18.50;67.20;;;;;;5048305;28;19909;-77
2022/06/22 08:41:28;;;;;;;;;;;18.60;67.20;;;;;;5057595;28;19940;-77
2022/06/22 08:44:00;;;;;;;;;;;18.60;67.00;;;;;;5067645;28;19913;-77
2022/06/22 08:46:37;;;;;;;;;;;18.70;67.00;;;;;;5055079;28;19956;-77
2022/06/22 08:49:08;;;;;;;;;;;18.70;67.00;;;;;;5054120;28;20132;-77
2022/06/22 08:52:02;;;;;;;;;;;18.70;66.80;;;;;;5054825;28;20701;-77
2022/06/22 08:54:37;;;;;;;;;;;18.80;66.90;;;;;;5019021;28;20392;-77
2022/06/22 08:57:05;;;;;;;;;;;18.80;66.70;;;;;;5067270;28;19916;-77
2022/06/22 08:59:55;;;;;;;;;;;18.90;66.60;;;;;;5055312;28;20011;-77
2022/06/22 09:02:56;;;;;;;;;;;18.90;66.70;;;;;;5062857;28;20050;-77
2022/06/22 09:05:24;;;;;;;;;;;19.00;66.50;;;;;;5049192;28;20000;-77
2022/06/22 09:07:59;;;;;;;;;;;19.00;66.40;;;;;;5058858;28;19946;-77
2022/06/22 09:10:43;;;;;;;;;;;19.00;66.40;;;;;;5083444;28;19912;-77
2022/06/22 09:13:08;;;;;;;;;;;19.10;66.50;;;;;;5060309;28;19913;-77
2022/06/22 09:15:46;;;;;;;;;;;19.10;66.40;;;;;;5054783;28;20337;-77
2022/06/22 09:18:30;;;;;;;;;;;19.10;66.20;;;;;;5052442;28;19909;-77
2022/06/22 09:21:14;;;;;;;;;;;19.20;66.10;;;;;;5047052;28;19913;-77
2022/06/22 09:23:43;;;;;;;;;;;19.30;66.10;;;;;;5053274;28;19920;-77
2022/06/22 09:26:14;;;;;;;;;;;19.30;66.00;;;;;;5059477;28;19951;-77
2022/06/22 09:28:43;;;;;;;;;;;19.40;65.80;;;;;;5053362;28;19919;-77
2022/06/22 09:31:18;;;;;;;;;;;19.40;66.00;;;;;;5052298;28;20004;-77
2022/06/22 09:34:06;;;;;;;;;;;19.40;65.70;;;;;;5047514;28;19991;-77
2022/06/22 09:36:31;;;;;;;;;;;19.50;65.60;;;;;;5060178;28;19966;-78
2022/06/22 09:38:57;;;;;;;;;;;19.60;65.60;;;;;;5058901;28;19920;-77
2022/06/22 09:41:32;;;;;;;;;;;19.60;65.50;;;;;;5057079;28;19971;-78
2022/06/22 09:43:58;;;;;;;;;;;19.70;65.40;;;;;;5049552;28;19919;-78
2022/06/22 09:46:36;;;;;;;;;;;19.70;65.30;;;;;;5059384;28;19927;-78
2022/06/22 09:49:10;;;;;;;;;;;19.80;65.20;;;;;;5062153;28;19999;-78
2022/06/22 09:51:45;;;;;;;;;;;19.80;65.50;;;;;;5057994;28;19920;-78
2022/06/22 09:56:19;;;;;;;;;;;19.90;65.00;;;;;;5061561;28;19912;-78
2022/06/22 09:57:00;;;;;;;;;;;20.00;65.00;;;;;;5056184;28;19997;-78
2022/06/22 09:59:32;;;;;;;;;;;20.00;64.90;;;;;;5057696;28;19919;-78
2022/06/22 10:01:57;;;;;;;;;;;20.10;64.80;;;;;;5054408;28;19923;-78
2022/06/22 10:04:42;;;;;;;;;;;20.20;64.70;;;;;;5061063;28;19917;-79
2022/06/22 10:07:10;;;;;;;;;;;20.20;64.70;;;;;;5064887;28;19919;-78
2022/06/22 10:09:58;;;;;;;;;;;20.30;64.50;;;;;;5066253;28;20343;-78
2022/06/22 10:12:32;;;;;;;;;;;20.40;64.60;;;;;;5059109;28;20602;-78
2022/06/22 10:15:14;;;;;;;;;;;20.50;64.40;;;;;;5059321;28;20430;-79
2022/06/22 10:17:42;;;;;;;;;;;20.60;64.50;;;;;;5047074;28;19978;-79
2022/06/22 10:20:14;;;;;;;;;;;20.60;64.40;;;;;;5053836;28;19956;-79
2022/06/22 10:22:45;;;;;;;;;;;20.70;64.40;;;;;;5047149;28;20349;-79
2022/06/22 10:25:14;;;;;;;;;;;20.80;64.40;;;;;;5052236;28;19922;-79
2022/06/22 10:27:45;;;;;;;;;;;20.90;64.40;;;;;;5065901;28;20396;-79
2022/06/22 10:30:20;;;;;;;;;;;21.00;64.60;;;;;;5054022;28;19917;-79
2022/06/22 10:33:02;;;;;;;;;;;21.10;64.80;;;;;;5047016;28;20007;-79
2022/06/22 10:35:46;;;;;;;;;;;21.10;64.70;;;;;;5059476;28;19920;-79
2022/06/22 10:38:14;;;;;;;;;;;21.30;64.80;;;;;;5056780;28;19916;-79
2022/06/22 10:46:41;;;;;;;;;;;21.60;64.80;;;;;;5058862;28;20129;-79
2022/06/22 10:49:13;;;;;;;;;;;21.70;64.80;;;;;;5053537;28;19916;-80
2022/06/22 10:51:45;;;;;;;;;;;21.80;64.80;;;;;;5059237;28;19912;-79
2022/06/22 10:54:29;;;;;;;;;;;21.90;64.40;;;;;;5044893;28;20756;-79
2022/06/22 10:57:13;;;;;;;;;;;22.10;64.20;;;;;;5046385;28;20381;-80
2022/06/22 10:59:59;;;;;;;;;;;22.30;64.10;;;;;;5046567;28;19955;-79
2022/06/22 11:02:33;;;;;;;;;;;22.40;64.40;;;;;;5059922;28;19912;-79
2022/06/22 11:05:21;;;;;;;;;;;22.60;63.90;;;;;;5058745;28;19912;-79
2022/06/22 11:08:00;;;;;;;;;;;22.70;64.00;;;;;;5055421;28;19913;-80
2022/06/22 11:10:25;;;;;;;;;;;22.80;64.10;;;;;;5052949;28;19929;-80
2022/06/22 11:13:01;;;;;;;;;;;23.00;64.10;;;;;;5064510;28;20042;-79
2022/06/22 11:15:29;;;;;;;;;;;23.10;64.40;;;;;;5065742;28;20007;-79
2022/06/22 11:17:59;;;;;;;;;;;23.20;64.40;;;;;;5065402;28;19913;-79
2022/06/22 11:20:44;;;;;;;;;;;23.30;64.10;;;;;;5059058;28;20242;-79
2022/06/22 11:23:11;;;;;;;;;;;23.40;64.10;;;;;;5052516;28;19912;-79
2022/06/22 11:31:58;;;;;;;;;;;23.70;63.30;;;;;;5063931;28;20552;-79
2022/06/22 11:34:27;;;;;;;;;;;23.90;63.30;;;;;;5065122;28;20036;-79
2022/06/22 11:37:04;;;;;;;;;;;24.00;63.10;;;;;;5065037;28;19995;-80
2022/06/22 11:39:30;;;;;;;;;;;24.10;63.00;;;;;;5057766;28;20407;-79
2022/06/22 11:41:58;;;;;;;;;;;24.20;62.80;;;;;;5056777;28;19951;-79
2022/06/22 11:44:28;;;;;;;;;;;24.30;62.70;;;;;;5064588;28;19924;-79
2022/06/22 11:47:00;;;;;;;;;;;24.40;62.70;;;;;;5063541;28;19920;-80
2022/06/22 11:49:35;;;;;;;;;;;24.50;62.70;;;;;;5058735;28;20288;-79
2022/06/22 11:52:01;;;;;;;;;;;24.60;63.20;;;;;;5057782;28;20729;-79
2022/06/22 11:54:29;;;;;;;;;;;24.70;62.70;;;;;;5049834;28;19913;-79
2022/06/22 11:57:02;;;;;;;;;;;24.70;62.70;;;;;;5045165;28;20013;-79
2022/06/22 11:59:34;;;;;;;;;;;24.70;62.90;;;;;;5056926;28;19994;-79
2022/06/22 12:02:18;;;;;;;;;;;24.80;63.20;;;;;;5053989;28;20678;-79
2022/06/22 12:04:43;;;;;;;;;;;24.90;62.90;;;;;;5057595;28;19966;-79
2022/06/22 12:07:09;;;;;;;;;;;24.90;63.00;;;;;;5064197;28;20261;-80
2022/06/22 12:09:39;;;;;;;;;;;25.00;62.90;;;;;;5064503;28;19931;-79
2022/06/22 12:12:23;;;;;;;;;;;25.10;63.00;;;;;;5063299;28;19912;-79
2022/06/22 12:15:09;;;;;;;;;;;25.20;63.20;;;;;;5064534;28;19913;-79
2022/06/22 12:17:53;;;;;;;;;;;25.30;62.70;;;;;;5062752;28;19966;-79
2022/06/22 12:20:28;;;;;;;;;;;25.30;63.00;;;;;;5044599;28;19916;-79
2022/06/22 12:22:57;;;;;;;;;;;25.30;63.00;;;;;;5051655;28;19919;-79
2022/06/22 12:25:28;;;;;;;;;;;25.30;62.80;;;;;;5062909;28;19912;-79
2022/06/22 12:28:04;;;;;;;;;;;25.40;62.80;;;;;;5062439;28;19916;-79
2022/06/22 12:30:38;;;;;;;;;;;25.50;62.90;;;;;;5056247;28;19913;-79
2022/06/22 12:33:08;;;;;;;;;;;25.60;62.80;;;;;;5044889;28;19973;-79
2022/06/22 12:35:43;;;;;;;;;;;25.60;62.80;;;;;;5045714;28;20420;-79
2022/06/22 12:38:35;;;;;;;;;;;25.70;62.60;;;;;;5051115;28;19912;-79
2022/06/22 12:41:09;;;;;;;;;;;25.70;62.40;;;;;;5053355;28;19909;-79
2022/06/22 12:43:38;;;;;;;;;;;25.80;62.70;;;;;;5047567;28;19973;-79
2022/06/22 12:46:03;;;;;;;;;;;25.90;62.60;;;;;;5056548;28;20598;-79
2022/06/22 12:48:37;;;;;;;;;;;26.00;62.40;;;;;;5063432;28;19920;-79
2022/06/22 12:51:23;;;;;;;;;;;26.00;62.20;;;;;;5045218;28;20377;-79
2022/06/22 12:54:00;;;;;;;;;;;26.10;62.40;;;;;;5043352;28;19913;-79
2022/06/22 12:56:30;;;;;;;;;;;26.20;62.30;;;;;;5044585;28;20697;-79
2022/06/22 12:59:16;;;;;;;;;;;26.30;62.10;;;;;;5044856;28;19966;-79
2022/06/22 13:01:42;;;;;;;;;;;26.40;62.10;;;;;;5053177;28;20304;-79
2022/06/22 13:04:15;;;;;;;;;;;26.40;61.90;;;;;;5054888;28;20054;-79
2022/06/22 13:06:45;;;;;;;;;;;26.50;61.80;;;;;;5054913;28;20523;-79
2022/06/22 13:09:12;;;;;;;;;;;26.60;61.70;;;;;;5059237;28;20030;-79
2022/06/22 13:11:38;;;;;;;;;;;26.60;61.60;;;;;;5063491;28;20019;-80
2022/06/22 13:14:10;;;;;;;;;;;26.70;61.60;;;;;;5051547;28;20609;-79
2022/06/22 13:16:41;;;;;;;;;;;26.80;61.70;;;;;;5049835;28;19942;-79
2022/06/22 13:19:24;;;;;;;;;;;26.80;61.60;;;;;;5061949;28;19916;-79
2022/06/22 13:22:07;;;;;;;;;;;26.90;61.60;;;;;;5057420;28;19924;-79
2022/06/22 13:24:33;;;;;;;;;;;27.00;61.60;;;;;;5061292;28;19958;-79
2022/06/22 13:27:01;;;;;;;;;;;27.00;61.40;;;;;;5067009;28;20002;-79
2022/06/22 13:29:33;;;;;;;;;;;27.00;61.40;;;;;;5067574;28;20023;-79
2022/06/22 13:32:00;;;;;;;;;;;27.10;61.40;;;;;;5066125;28;19958;-80
2022/06/22 13:34:28;;;;;;;;;;;27.20;61.50;;;;;;5054320;28;19916;-79
2022/06/22 13:37:11;;;;;;;;;;;27.20;61.20;;;;;;5063445;28;19935;-80
2022/06/22 13:39:51;;;;;;;;;;;27.30;61.20;;;;;;5057448;28;19913;-80
2022/06/22 13:42:29;;;;;;;;;;;27.40;61.00;;;;;;5047937;28;20271;-79
2022/06/22 13:44:57;;;;;;;;;;;27.50;60.80;;;;;;5046454;28;19971;-79
2022/06/22 13:47:32;;;;;;;;;;;27.50;60.60;;;;;;5047787;28;19916;-79
2022/06/22 13:52:44;;;;;;;;;;;27.60;60.30;;;;;;5048118;28;19936;-79
2022/06/22 13:55:12;;;;;;;;;;;27.70;60.20;;;;;;5057435;28;19912;-79
2022/06/22 13:57:41;;;;;;;;;;;27.70;60.00;;;;;;5046029;28;19940;-79
2022/06/22 14:00:07;;;;;;;;;;;27.70;60.00;;;;;;5047692;28;19958;-79
2022/06/22 14:02:50;;;;;;;;;;;27.80;60.10;;;;;;5047681;28;19909;-79
2022/06/22 14:05:16;;;;;;;;;;;27.80;60.10;;;;;;5052856;28;19971;-79
2022/06/22 14:07:44;;;;;;;;;;;27.90;59.90;;;;;;5063361;28;20408;-79
2022/06/22 14:10:28;;;;;;;;;;;27.90;59.70;;;;;;5056094;28;19963;-79
2022/06/22 14:13:01;;;;;;;;;;;28.00;59.90;;;;;;5047374;28;19955;-79
2022/06/22 14:15:31;;;;;;;;;;;28.10;60.00;;;;;;5047426;28;20043;-79
2022/06/22 14:18:03;;;;;;;;;;;28.10;59.80;;;;;;5066103;28;19915;-79
2022/06/22 14:20:36;;;;;;;;;;;28.20;59.60;;;;;;5046111;28;20623;-79
2022/06/22 14:23:05;;;;;;;;;;;28.20;59.50;;;;;;5046838;28;19912;-79
2022/06/22 14:25:33;;;;;;;;;;;28.20;59.30;;;;;;5056555;28;20004;-79
2022/06/22 14:27:59;;;;;;;;;;;28.30;59.10;;;;;;5046767;28;19920;-79
2022/06/22 14:30:43;;;;;;;;;;;28.40;58.60;;;;;;5046663;28;19912;-79
2022/06/22 14:33:27;;;;;;;;;;;28.40;57.90;;;;;;5048498;28;19912;-79
2022/06/22 14:35:53;;;;;;;;;;;28.50;57.80;;;;;;5062556;28;19974;-79
2022/06/22 14:38:24;;;;;;;;;;;28.60;57.60;;;;;;5065084;28;20033;-79
2022/06/22 14:41:08;;;;;;;;;;;28.70;57.10;;;;;;5057450;28;20002;-79
2022/06/22 14:43:48;;;;;;;;;;;28.80;57.00;;;;;;5052606;28;19920;-79
2022/06/22 14:46:20;;;;;;;;;;;28.90;56.80;;;;;;5046382;28;20007;-79
2022/06/22 14:48:51;;;;;;;;;;;29.00;56.60;;;;;;5049343;28;19959;-79
2022/06/22 14:51:16;;;;;;;;;;;29.20;56.30;;;;;;5065934;28;19991;-79
2022/06/22 14:53:42;;;;;;;;;;;29.30;56.50;;;;;;5064016;28;20007;-78
2022/06/22 14:56:19;;;;;;;;;;;29.40;55.90;;;;;;5065895;28;19924;-79
2022/06/22 14:58:53;;;;;;;;;;;29.60;55.80;;;;;;5038834;28;19984;-79
2022/06/22 15:01:24;;;;;;;;;;;29.80;55.40;;;;;;5063282;28;19914;-79
2022/06/22 15:03:53;;;;;;;;;;;30.00;54.70;;;;;;5056525;28;19913;-79
2022/06/22 15:06:42;;;;;;;;;;;30.10;54.80;;;;;;5064449;28;20015;-79